10°C Temp
5°C Dewpoint
71% Humidity
Temperature
2 KM/H
1 MPH
1 KTS
Calm
Due North

Wind Speed
Clear
Conditions
Pressure 1019.98 (hPa) - 30.12 (in)
Visibility 5.6 (mi) - 9.0 (km)

Current Conditions
LSZA
Location 41(km)
Metar :LSZA 211920Z AUTO VRB01KT 9000 NCD 10/05 Q1020
Wed 21st February 20:20 pm

Airport
  Metar Aviation API Data Provided by https://www.checkwx.com/ PHP scripts by weather34.com ©2024